Time;durP1;ratioP1;P1;durP2;ratioP2;P2;SDS_P1;SDS_P2;PMS_P1;PMS_P2;Temp;Humidity;BMP_temperature;BMP_pressure;BME280_temperature;BME280_humidity;BME280_pressure;Samples;Min_cycle;Max_cycle;Signal;HPM_P1;HPM_P2
2022/04/20 00:00:00;;;;;;;;;;;;;;;13.09;38.33;98830.69;4482503;32;34026;-81
2022/04/20 00:02:28;;;;;;;;;;;;;;;13.09;38.50;98838.50;4482629;32;35135;-82
2022/04/20 00:04:55;;;;;;;;;;;;;;;12.80;39.43;98831.59;4482539;32;34796;-80
2022/04/20 00:07:22;;;;;;;;;;;;;;;13.04;39.02;98830.69;4483018;32;33026;-81
2022/04/20 00:09:50;;;;;;;;;;;;;;;13.20;39.09;98831.53;4482781;32;34062;-80
2022/04/20 00:12:17;;;;;;;;;;;;;;;13.17;39.17;98835.87;4482157;32;36069;-81
2022/04/20 00:14:44;;;;;;;;;;;;;;;13.15;39.59;98834.16;4482593;32;34112;-81
2022/04/20 00:17:12;;;;;;;;;;;;;;;13.24;39.57;98840.22;4482870;32;34402;-80
2022/04/20 00:19:39;;;;;;;;;;;;;;;13.43;39.24;98834.06;4481454;32;33820;-82
2022/04/20 00:22:07;;;;;;;;;;;;;;;13.01;40.07;98835.91;4473058;32;35441;-81
2022/04/20 00:24:35;;;;;;;;;;;;;;;13.56;38.97;98825.34;4483510;32;33933;-81
2022/04/20 00:27:02;;;;;;;;;;;;;;;13.62;38.70;98827.91;4482721;32;33414;-80
2022/04/20 00:29:29;;;;;;;;;;;;;;;13.60;38.74;98834.87;4482368;32;34990;-82
2022/04/20 00:31:56;;;;;;;;;;;;;;;13.63;38.54;98827.03;4482734;32;35084;-81
2022/04/20 00:34:24;;;;;;;;;;;;;;;13.73;38.32;98825.25;4482594;32;35034;-82
2022/04/20 00:36:52;;;;;;;;;;;;;;;13.74;38.53;98826.09;4482828;32;33749;-82
2022/04/20 00:39:19;;;;;;;;;;;;;;;13.77;38.35;98829.56;4482560;32;34475;-81
2022/04/20 00:41:48;;;;;;;;;;;;;;;13.68;38.43;98820.94;4482731;32;33923;-81
2022/04/20 00:44:15;;;;;;;;;;;;;;;13.73;38.38;98827.84;4468832;32;35070;-82
2022/04/20 00:46:42;;;;;;;;;;;;;;;13.79;38.11;98816.53;4468258;32;33301;-81
2022/04/20 00:49:10;;;;;;;;;;;;;;;13.69;38.06;98827.87;4468170;32;35050;-82
2022/04/20 00:51:51;;;;;;;;;;;;;;;13.53;38.21;98832.31;4481735;32;34384;-81
2022/04/20 00:54:18;;;;;;;;;;;;;;;13.58;38.14;98830.53;4482845;32;33607;-82
2022/04/20 00:56:48;;;;;;;;;;;;;;;13.57;38.02;98834.03;4470284;32;31519;-82
2022/04/20 00:59:22;;;;;;;;;;;;;;;13.61;37.99;98827.91;4482488;32;34758;-82
2022/04/20 01:01:50;;;;;;;;;;;;;;;13.39;38.41;98842.78;4482257;32;35260;-81
2022/04/20 01:04:18;;;;;;;;;;;;;;;12.49;40.11;98842.91;4482578;32;34046;-81
2022/04/20 01:06:46;;;;;;;;;;;;;;;12.85;39.55;98839.41;4468227;32;31796;-81
2022/04/20 01:09:13;;;;;;;;;;;;;;;13.01;39.03;98848.06;4481809;32;34985;-80
2022/04/20 01:11:41;;;;;;;;;;;;;;;13.16;38.82;98848.03;4480184;32;33754;-82
2022/04/20 01:14:08;;;;;;;;;;;;;;;13.06;38.80;98844.56;4468351;32;34687;-82
2022/04/20 01:16:37;;;;;;;;;;;;;;;13.21;38.58;98842.78;4482067;32;33220;-81
2022/04/20 01:19:04;;;;;;;;;;;;;;;13.12;38.69;98849.75;4482138;32;34481;-81
2022/04/20 01:21:32;;;;;;;;;;;;;;;13.48;37.78;98849.66;4481719;32;33785;-80
2022/04/20 01:24:00;;;;;;;;;;;;;;;13.38;37.81;98843.66;4482870;32;34994;-81
2022/04/20 01:26:28;;;;;;;;;;;;;;;13.31;37.64;98852.34;4481935;32;33211;-81
2022/04/20 01:28:55;;;;;;;;;;;;;;;13.26;37.80;98846.28;4482703;32;34513;-81
2022/04/20 01:31:23;;;;;;;;;;;;;;;13.13;38.09;98846.28;4468666;32;34462;-81
2022/04/20 01:33:50;;;;;;;;;;;;;;;13.32;37.51;98849.72;4482254;32;33769;-81
2022/04/20 01:36:18;;;;;;;;;;;;;;;13.21;37.78;98861.00;4472212;32;33114;-81
2022/04/20 01:38:46;;;;;;;;;;;;;;;13.42;37.24;98854.91;4481602;32;34587;-82
2022/04/20 01:41:14;;;;;;;;;;;;;;;13.13;37.75;98854.09;4482197;32;34295;-81
2022/04/20 01:43:42;;;;;;;;;;;;;;;12.84;38.19;98858.47;4482388;32;34967;-82
2022/04/20 01:46:12;;;;;;;;;;;;;;;12.79;38.61;98850.69;4482052;32;33141;-80
2022/04/20 01:48:40;;;;;;;;;;;;;;;12.91;38.32;98855.00;4481591;32;35125;-81
2022/04/20 01:53:55;;;;;;;;;;;;;;;13.26;37.50;98854.06;4482252;32;34240;-82
2022/04/20 01:56:23;;;;;;;;;;;;;;;13.12;37.83;98849.75;4481901;32;32860;-82
2022/04/20 01:58:51;;;;;;;;;;;;;;;13.03;37.91;98857.59;4482467;32;32899;-81
2022/04/20 02:04:06;;;;;;;;;;;;;;;12.97;38.24;98854.12;4481452;32;34235;-81
2022/04/20 02:06:34;;;;;;;;;;;;;;;12.96;38.25;98852.41;4482793;32;33591;-81
2022/04/20 02:09:01;;;;;;;;;;;;;;;13.02;38.07;98847.19;4483879;32;34316;-82
2022/04/20 02:11:29;;;;;;;;;;;;;;;13.17;37.81;98841.06;4483975;32;34415;-81
2022/04/20 02:13:58;;;;;;;;;;;;;;;13.14;37.74;98842.84;4484075;32;34147;-81
2022/04/20 02:16:25;;;;;;;;;;;;;;;12.79;38.42;98847.22;4483538;32;34020;-82
2022/04/20 02:18:53;;;;;;;;;;;;;;;12.92;38.25;98851.56;4471904;32;34049;-81
2022/04/20 02:21:22;;;;;;;;;;;;;;;12.94;38.27;98849.78;4484180;32;34379;-81
2022/04/20 02:23:50;;;;;;;;;;;;;;;13.24;37.75;98848.03;4469728;32;34781;-81
2022/04/20 02:26:20;;;;;;;;;;;;;;;12.71;39.05;98851.56;4483279;32;33437;-82
2022/04/20 02:28:47;;;;;;;;;;;;;;;12.96;38.86;98842.87;4483824;32;34894;-82
2022/04/20 02:31:14;;;;;;;;;;;;;;;12.44;39.97;98842.06;4483454;32;35134;-81
2022/04/20 02:33:42;;;;;;;;;;;;;;;12.33;39.74;98842.91;4483907;32;33996;-82
2022/04/20 02:36:10;;;;;;;;;;;;;;;12.81;38.74;98843.75;4469766;32;33368;-82
2022/04/20 02:38:38;;;;;;;;;;;;;;;12.83;38.70;98846.34;4469478;32;35028;-82
2022/04/20 02:41:06;;;;;;;;;;;;;;;12.98;38.45;98841.13;4469168;32;35311;-82
2022/04/20 02:43:33;;;;;;;;;;;;;;;13.08;38.13;98840.22;4483903;32;33084;-81
2022/04/20 02:46:01;;;;;;;;;;;;;;;12.98;38.23;98845.47;4483732;32;33904;-82
2022/04/20 02:48:28;;;;;;;;;;;;;;;13.07;38.14;98848.91;4483281;32;33888;-81
2022/04/20 02:50:55;;;;;;;;;;;;;;;13.03;38.29;98848.91;4482552;32;34832;-82
2022/04/20 02:53:23;;;;;;;;;;;;;;;13.11;38.10;98841.97;4483680;32;34980;-82
2022/04/20 02:55:50;;;;;;;;;;;;;;;13.05;38.21;98835.03;4483278;31;33582;-82
2022/04/20 02:58:18;;;;;;;;;;;;;;;13.12;38.03;98838.50;4483466;32;34143;-82
2022/04/20 03:00:46;;;;;;;;;;;;;;;13.04;38.41;98841.13;4483276;32;35176;-82
2022/04/20 03:03:14;;;;;;;;;;;;;;;13.13;38.02;98848.03;4469296;32;35048;-82
2022/04/20 03:05:42;;;;;;;;;;;;;;;13.35;37.65;98848.84;4482924;32;35031;-82
2022/04/20 03:08:10;;;;;;;;;;;;;;;13.12;38.27;98847.16;4484093;32;34316;-82
2022/04/20 03:10:38;;;;;;;;;;;;;;;13.25;38.11;98853.22;4482777;32;33705;-82
2022/04/20 03:13:05;;;;;;;;;;;;;;;12.95;38.97;98851.53;4483295;32;34222;-81
2022/04/20 03:15:32;;;;;;;;;;;;;;;13.30;38.42;98855.84;4483565;32;33196;-82
2022/04/20 03:18:00;;;;;;;;;;;;;;;13.35;38.18;98852.31;4483564;32;34603;-82
2022/04/20 03:20:27;;;;;;;;;;;;;;;13.26;38.29;98857.56;4482576;32;35198;-82
2022/04/20 03:22:54;;;;;;;;;;;;;;;13.25;38.28;98845.41;4482457;32;33311;-81
2022/04/20 03:25:22;;;;;;;;;;;;;;;12.99;38.84;98854.97;4483032;32;33108;-82
2022/04/20 03:27:51;;;;;;;;;;;;;;;13.20;38.50;98854.09;4482285;32;34297;-82
2022/04/20 03:30:18;;;;;;;;;;;;;;;13.24;38.22;98863.66;4483922;32;34969;-82
2022/04/20 03:32:46;;;;;;;;;;;;;;;13.27;37.73;98856.69;4483711;32;34326;-82
2022/04/20 03:35:14;;;;;;;;;;;;;;;13.23;37.43;98857.59;4483013;32;33274;-82
2022/04/20 03:37:41;;;;;;;;;;;;;;;13.34;37.34;98861.03;4483133;32;35118;-82
2022/04/20 03:40:09;;;;;;;;;;;;;;;13.35;37.11;98861.88;4468223;32;34463;-81
2022/04/20 03:42:36;;;;;;;;;;;;;;;13.21;37.52;98858.41;4483470;32;34271;-82
2022/04/20 03:45:03;;;;;;;;;;;;;;;13.11;37.64;98863.66;4483325;32;33476;-81
2022/04/20 03:47:31;;;;;;;;;;;;;;;13.20;37.59;98861.91;4483088;32;34254;-81
2022/04/20 03:49:58;;;;;;;;;;;;;;;12.89;38.28;98872.37;4482600;32;35140;-82
2022/04/20 03:52:26;;;;;;;;;;;;;;;13.19;37.94;98875.78;4483849;32;33930;-82
2022/04/20 03:54:53;;;;;;;;;;;;;;;13.31;37.52;98870.56;4483361;32;34228;-82
2022/04/20 03:57:21;;;;;;;;;;;;;;;13.30;37.58;98869.72;4483829;32;34919;-81
2022/04/20 03:59:48;;;;;;;;;;;;;;;13.21;37.85;98868.81;4484165;32;33879;-82
2022/04/20 04:02:17;;;;;;;;;;;;;;;13.28;37.88;98870.56;4483695;32;34627;-81
2022/04/20 04:04:45;;;;;;;;;;;;;;;13.34;37.75;98873.19;4483927;32;34301;-82
2022/04/20 04:07:13;;;;;;;;;;;;;;;13.04;38.33;98872.34;4483744;32;34251;-81
2022/04/20 04:09:40;;;;;;;;;;;;;;;13.11;38.49;98878.41;4483078;32;34702;-81
2022/04/20 04:12:08;;;;;;;;;;;;;;;13.29;38.38;98875.75;4483623;32;34228;-82
2022/04/20 04:14:37;;;;;;;;;;;;;;;13.15;38.80;98878.38;4484126;32;33086;-82
2022/04/20 04:17:06;;;;;;;;;;;;;;;13.54;38.37;98879.16;4482722;32;34116;-82
2022/04/20 04:19:34;;;;;;;;;;;;;;;13.57;38.54;98880.91;4482392;32;34468;-82
2022/04/20 04:22:02;;;;;;;;;;;;;;;13.77;38.07;98881.69;4483903;32;34961;-82
2022/04/20 04:24:35;;;;;;;;;;;;;;;13.91;37.90;98881.63;4482639;32;34022;-82
2022/04/20 04:27:03;;;;;;;;;;;;;;;14.19;37.43;98891.88;4482045;32;33896;-81
2022/04/20 04:29:34;;;;;;;;;;;;;;;14.29;37.37;98885.72;4475816;32;34155;-82
2022/04/20 04:32:01;;;;;;;;;;;;;;;13.96;37.92;98887.66;4476576;32;33975;-82
2022/04/20 04:34:29;;;;;;;;;;;;;;;13.50;38.44;98895.69;4482454;32;33089;-82
2022/04/20 04:36:58;;;;;;;;;;;;;;;14.17;37.35;98897.09;4482773;32;34148;-82
2022/04/20 04:39:28;;;;;;;;;;;;;;;14.06;36.75;98897.16;4476804;32;34507;-82
2022/04/20 04:42:02;;;;;;;;;;;;;;;14.16;36.90;98905.78;4483364;32;34326;-82
2022/04/20 04:44:32;;;;;;;;;;;;;;;14.68;36.00;98899.38;4483034;32;33328;-82
2022/04/20 04:49:46;;;;;;;;;;;;;;;14.44;36.24;98888.22;4477273;32;35351;-81
2022/04/20 04:52:13;;;;;;;;;;;;;;;13.09;38.99;98909.63;4467964;32;34108;-82
2022/04/20 04:54:42;;;;;;;;;;;;;;;12.87;39.73;98905.31;4469486;32;34290;-81
2022/04/20 04:57:11;;;;;;;;;;;;;;;13.80;37.66;98914.69;4482165;32;35106;-80
2022/04/20 04:59:40;;;;;;;;;;;;;;;13.57;38.62;98918.22;4483226;32;34150;-82
2022/04/20 05:02:08;;;;;;;;;;;;;;;13.53;38.13;98915.66;4482126;32;35028;-81
2022/04/20 05:04:36;;;;;;;;;;;;;;;12.51;40.46;98924.41;4482536;32;33438;-82
2022/04/20 05:07:04;;;;;;;;;;;;;;;12.69;40.33;98915.72;4482796;32;33779;-82
2022/04/20 05:09:32;;;;;;;;;;;;;;;12.07;41.59;98915.62;4482705;32;34483;-82
2022/04/20 05:11:59;;;;;;;;;;;;;;;11.03;44.61;98922.91;4469260;32;34507;-82
2022/04/20 05:14:28;;;;;;;;;;;;;;;11.75;43.35;98915.50;4483182;32;34083;-82
2022/04/20 05:16:56;;;;;;;;;;;;;;;13.14;40.05;98915.72;4482307;32;33371;-82
2022/04/20 05:19:24;;;;;;;;;;;;;;;13.86;38.99;98919.84;4482642;32;34156;-81
2022/04/20 05:21:52;;;;;;;;;;;;;;;13.38;39.81;98917.41;4483158;32;34233;-82
2022/04/20 05:24:23;;;;;;;;;;;;;;;14.28;38.14;98915.28;4481371;32;33927;-82
2022/04/20 05:26:50;;;;;;;;;;;;;;;13.08;40.35;98927.84;4483018;32;35278;-82
2022/04/20 05:29:19;;;;;;;;;;;;;;;13.86;39.63;98928.56;4483346;32;35283;-82
2022/04/20 05:31:47;;;;;;;;;;;;;;;13.56;39.79;98937.34;4482926;32;34873;-82
2022/04/20 05:34:15;;;;;;;;;;;;;;;13.13;40.97;98929.56;4483091;32;34320;-83
2022/04/20 05:42:29;;;;;;;;;;;;;;;14.18;38.54;98930.12;4467270;32;34412;-82
2022/04/20 05:44:57;;;;;;;;;;;;;;;13.65;39.38;98935.56;4467528;32;33224;-82
2022/04/20 05:47:24;;;;;;;;;;;;;;;14.41;38.17;98931.72;4466816;32;34241;-82
2022/04/20 05:49:51;;;;;;;;;;;;;;;14.75;37.49;98932.38;4475662;32;34235;-82
2022/04/20 05:52:19;;;;;;;;;;;;;;;13.97;39.28;98928.47;4481231;32;33572;-81
2022/04/20 05:54:47;;;;;;;;;;;;;;;14.16;38.65;98926.63;4480476;32;33146;-82
2022/04/20 05:57:15;;;;;;;;;;;;;;;14.54;37.92;98926.44;4482251;32;34893;-81
2022/04/20 05:59:43;;;;;;;;;;;;;;;13.32;40.78;98933.03;4480029;32;34319;-81
2022/04/20 06:02:10;;;;;;;;;;;;;;;13.10;41.25;98934.78;4482146;32;34909;-82
2022/04/20 06:04:38;;;;;;;;;;;;;;;13.25;41.11;98930.44;4482789;32;33531;-82
2022/04/20 06:07:06;;;;;;;;;;;;;;;12.90;42.09;98927.00;4482312;32;34168;-82
2022/04/20 06:09:34;;;;;;;;;;;;;;;12.80;42.18;98927.00;4482654;32;34165;-82
2022/04/20 06:12:02;;;;;;;;;;;;;;;12.92;41.68;98929.59;4481992;32;34318;-82
2022/04/20 06:14:32;;;;;;;;;;;;;;;13.44;40.86;98926.94;4482434;32;34228;-82
2022/04/20 06:16:59;;;;;;;;;;;;;;;11.54;44.92;98934.44;4482171;32;35282;-82
2022/04/20 06:19:27;;;;;;;;;;;;;;;11.91;44.65;98932.03;4482395;32;33956;-82
2022/04/20 06:21:54;;;;;;;;;;;;;;;12.82;42.04;98925.25;4481934;32;33695;-82
2022/04/20 06:24:23;;;;;;;;;;;;;;;12.78;41.95;98926.13;4481327;32;33517;-82
2022/04/20 06:26:51;;;;;;;;;;;;;;;12.86;41.78;98927.00;4481943;32;33649;-83
2022/04/20 06:29:19;;;;;;;;;;;;;;;12.96;41.40;98926.13;4481581;32;34044;-82
2022/04/20 06:31:46;;;;;;;;;;;;;;;13.77;39.42;98922.50;4481282;32;34331;-82
2022/04/20 06:34:14;;;;;;;;;;;;;;;13.77;39.07;98925.97;4478445;32;34136;-81
2022/04/20 06:36:41;;;;;;;;;;;;;;;12.83;40.31;98924.41;4477741;32;34298;-82
2022/04/20 06:39:09;;;;;;;;;;;;;;;11.81;42.18;98925.91;4481374;32;34412;-82
2022/04/20 06:41:37;;;;;;;;;;;;;;;11.78;41.84;98920.72;4480841;32;34497;-82
2022/04/20 06:44:05;;;;;;;;;;;;;;;12.65;41.67;98915.75;4481669;32;33493;-83
2022/04/20 06:46:33;;;;;;;;;;;;;;;13.01;40.34;98919.19;4480680;32;33993;-82
2022/04/20 06:49:03;;;;;;;;;;;;;;;12.88;40.54;98922.69;4481559;32;34280;-81
2022/04/20 06:58:31;;;;;;;;;;;;;;;12.61;41.11;98915.72;4483309;32;34850;-82
2022/04/20 06:59:53;;;;;;;;;;;;;;;13.59;39.82;98908.66;4468049;32;34038;-81
2022/04/20 07:02:21;;;;;;;;;;;;;;;13.25;40.39;98907.88;4468557;32;33353;-81
2022/04/20 07:04:48;;;;;;;;;;;;;;;14.13;38.04;98898.00;4468674;32;33843;-81
2022/04/20 07:07:16;;;;;;;;;;;;;;;14.70;37.08;98895.00;4468336;32;33630;-81
2022/04/20 07:09:44;;;;;;;;;;;;;;;14.39;36.21;98890.00;4468300;32;33653;-82
2022/04/20 07:12:12;;;;;;;;;;;;;;;13.57;37.99;98907.81;4468424;32;35349;-81
2022/04/20 07:14:40;;;;;;;;;;;;;;;14.58;35.86;98901.19;4468215;32;33408;-81
2022/04/20 07:17:08;;;;;;;;;;;;;;;14.06;36.07;98906.72;4468314;32;34210;-82
2022/04/20 07:19:35;;;;;;;;;;;;;;;15.29;33.26;98899.66;4467964;32;34527;-83
2022/04/20 07:22:03;;;;;;;;;;;;;;;14.27;35.79;98901.38;4467893;32;34530;-83
2022/04/20 07:24:31;;;;;;;;;;;;;;;14.39;35.00;98887.38;4468338;32;33467;-83
2022/04/20 07:27:04;;;;;;;;;;;;;;;15.20;34.02;98904.13;4467158;32;35314;-83
2022/04/20 07:29:31;;;;;;;;;;;;;;;15.68;33.95;98891.44;4468021;32;35090;-82
2022/04/20 07:31:59;;;;;;;;;;;;;;;15.26;35.21;98893.63;4467031;32;34897;-78
2022/04/20 07:34:27;;;;;;;;;;;;;;;14.06;37.15;98889.34;4468549;32;33945;-83
2022/04/20 07:36:54;;;;;;;;;;;;;;;15.26;35.11;98899.69;4468450;32;34329;-82
2022/04/20 07:39:22;;;;;;;;;;;;;;;15.67;34.67;98902.78;4468561;32;35361;-83
2022/04/20 07:41:53;;;;;;;;;;;;;;;15.68;34.27;98901.88;4468615;32;33022;-83
2022/04/20 07:44:21;;;;;;;;;;;;;;;15.01;34.88;98901.72;4468098;32;33635;-82
2022/04/20 07:46:49;;;;;;;;;;;;;;;16.00;33.70;98888.41;4468461;32;34822;-82
2022/04/20 07:52:03;;;;;;;;;;;;;;;16.90;31.17;98904.53;4468404;32;34226;-83
2022/04/20 07:54:31;;;;;;;;;;;;;;;16.99;31.45;98899.97;4468734;32;32741;-83
2022/04/20 07:56:58;;;;;;;;;;;;;;;16.74;32.30;98893.41;4468155;32;34294;-84
2022/04/20 07:59:26;;;;;;;;;;;;;;;15.47;32.53;98903.84;4468264;32;35314;-82
2022/04/20 08:01:54;;;;;;;;;;;;;;;16.60;30.40;98901.47;4467140;32;33968;-84
2022/04/20 08:04:22;;;;;;;;;;;;;;;15.57;31.91;98908.09;4468348;32;33063;-83
2022/04/20 08:06:50;;;;;;;;;;;;;;;15.83;31.47;98893.84;4468325;32;33743;-84
2022/04/20 08:09:19;;;;;;;;;;;;;;;15.69;33.12;98893.19;4468085;32;34899;-83
2022/04/20 08:11:46;;;;;;;;;;;;;;;15.52;32.84;98891.56;4467876;32;35062;-83
2022/04/20 08:14:14;;;;;;;;;;;;;;;14.94;33.30;98889.59;4468269;32;34086;-83
2022/04/20 08:16:43;;;;;;;;;;;;;;;14.81;34.81;98894.06;4468397;32;34133;-82
2022/04/20 08:19:13;;;;;;;;;;;;;;;15.39;33.74;98883.91;4468211;32;33807;-83
2022/04/20 08:21:42;;;;;;;;;;;;;;;15.44;34.21;98882.97;4468192;32;33893;-83
2022/04/20 08:24:10;;;;;;;;;;;;;;;16.23;32.20;98881.09;4468126;32;33437;-83
2022/04/20 08:26:37;;;;;;;;;;;;;;;15.16;33.31;98881.56;4467685;32;34232;-83
2022/04/20 08:29:09;;;;;;;;;;;;;;;15.20;32.77;98878.03;4467999;32;35247;-83
2022/04/20 08:31:37;;;;;;;;;;;;;;;15.42;33.26;98878.63;4467813;32;34287;-82
2022/04/20 08:34:04;;;;;;;;;;;;;;;16.35;30.79;98868.72;4468297;32;34291;-83
2022/04/20 08:36:32;;;;;;;;;;;;;;;16.72;29.57;98866.37;4468009;32;34084;-82
2022/04/20 08:38:59;;;;;;;;;;;;;;;16.42;31.78;98868.59;4467672;32;35244;-84
2022/04/20 08:41:26;;;;;;;;;;;;;;;16.50;31.61;98877.19;4467641;32;32939;-82
2022/04/20 08:43:54;;;;;;;;;;;;;;;15.72;29.88;98874.81;4466938;32;33317;-84
2022/04/20 08:46:22;;;;;;;;;;;;;;;16.10;29.51;98879.56;4453655;32;34086;-82
2022/04/20 08:48:53;;;;;;;;;;;;;;;16.20;30.56;98865.44;4466713;32;34847;-83
2022/04/20 08:55:16;;;;;;;;;;;;;;;16.50;28.91;98864.13;4466353;32;33595;-84
2022/04/20 08:57:49;;;;;;;;;;;;;;;15.89;27.83;98870.25;4466488;32;34342;-83
2022/04/20 09:00:37;;;;;;;;;;;;;;;15.56;28.24;98861.91;4466721;32;35140;-82
2022/04/20 09:03:04;;;;;;;;;;;;;;;15.78;29.81;98859.94;4453662;32;34169;-82
2022/04/20 09:05:52;;;;;;;;;;;;;;;15.54;30.86;98863.69;4466643;32;33216;-82
2022/04/20 09:09:00;;;;;;;;;;;;;;;15.99;30.08;98861.41;4467271;32;34251;-83
2022/04/20 09:11:27;;;;;;;;;;;;;;;16.53;29.06;98857.97;4467763;32;34413;-83
2022/04/20 09:14:35;;;;;;;;;;;;;;;17.78;27.50;98857.44;4457526;32;33890;-84
2022/04/20 09:17:24;;;;;;;;;;;;;;;15.53;29.46;98859.38;4466119;32;34053;-82
2022/04/20 09:20:32;;;;;;;;;;;;;;;15.52;29.33;98868.06;4458403;32;34203;-82
2022/04/20 09:23:20;;;;;;;;;;;;;;;17.27;26.78;98849.69;4465638;32;34121;-83
2022/04/20 09:26:28;;;;;;;;;;;;;;;16.45;29.38;98855.47;4466426;32;34002;-82
2022/04/20 09:29:12;;;;;;;;;;;;;;;16.34;29.52;98852.16;4455358;32;33232;-82
2022/04/20 09:32:32;;;;;;;;;;;;;;;16.04;30.05;98843.03;4467069;32;34057;-82
2022/04/20 09:35:03;;;;;;;;;;;;;;;17.17;28.94;98856.03;4466019;32;34521;-81
2022/04/20 09:38:11;;;;;;;;;;;;;;;17.45;29.31;98854.56;4441202;32;33899;-82
2022/04/20 09:41:18;;;;;;;;;;;;;;;18.05;27.28;98842.00;4440754;32;33045;-83
2022/04/20 09:44:27;;;;;;;;;;;;;;;16.80;26.43;98845.34;4440772;32;33829;-83
2022/04/20 09:50:24;;;;;;;;;;;;;;;16.71;29.09;98838.50;4427629;32;33281;-83
2022/04/20 09:53:13;;;;;;;;;;;;;;;16.50;29.12;98843.19;4437917;32;32370;-82
2022/04/20 09:55:41;;;;;;;;;;;;;;;15.75;30.20;98838.19;4445183;32;34045;-82
2022/04/20 09:58:29;;;;;;;;;;;;;;;16.66;29.55;98842.91;4455325;32;32266;-84
2022/04/20 10:00:58;;;;;;;;;;;;;;;17.92;25.92;98831.78;4465770;32;34189;-82
2022/04/20 10:03:27;;;;;;;;;;;;;;;18.31;26.15;98831.75;4465673;32;33294;-83
2022/04/20 10:05:54;;;;;;;;;;;;;;;18.58;25.82;98831.97;4467073;32;35071;-82
2022/04/20 10:08:22;;;;;;;;;;;;;;;19.00;24.94;98834.44;4466739;32;35241;-82
2022/04/20 10:10:50;;;;;;;;;;;;;;;16.63;28.70;98838.62;4467036;32;34369;-82
2022/04/20 10:13:18;;;;;;;;;;;;;;;17.77;26.43;98839.09;4466941;32;33305;-82
2022/04/20 10:16:05;;;;;;;;;;;;;;;17.35;26.57;98836.44;4466531;32;34185;-82
2022/04/20 10:18:34;;;;;;;;;;;;;;;17.95;25.82;98815.94;4466748;32;34304;-82
2022/04/20 10:21:01;;;;;;;;;;;;;;;18.66;25.21;98819.53;4465288;32;34259;-82
2022/04/20 10:23:30;;;;;;;;;;;;;;;17.85;25.87;98824.09;4466457;32;34263;-83
2022/04/20 10:25:58;;;;;;;;;;;;;;;17.31;27.01;98833.00;4468136;32;34099;-82
2022/04/20 10:28:45;;;;;;;;;;;;;;;17.58;25.19;98820.25;4467349;32;34377;-82
2022/04/20 10:31:28;;;;;;;;;;;;;;;16.90;25.67;98826.84;4468872;32;34309;-83
2022/04/20 10:33:57;;;;;;;;;;;;;;;16.80;27.38;98830.50;4468968;32;33835;-82
2022/04/20 10:36:30;;;;;;;;;;;;;;;17.18;26.64;98836.78;4468837;32;34115;-82
2022/04/20 10:39:22;;;;;;;;;;;;;;;17.93;25.47;98823.00;4468815;32;35111;-83
2022/04/20 10:42:17;;;;;;;;;;;;;;;18.21;24.74;98817.13;4468690;32;34433;-82
2022/04/20 10:45:00;;;;;;;;;;;;;;;18.22;24.69;98816.22;4466388;32;34144;-83
2022/04/20 10:47:30;;;;;;;;;;;;;;;17.26;27.03;98824.41;4454402;32;34925;-83
2022/04/20 10:50:09;;;;;;;;;;;;;;;16.33;30.53;98829.53;4461610;32;34525;-83
2022/04/20 10:52:37;;;;;;;;;;;;;;;16.54;30.87;98839.62;4483713;32;34841;-83
2022/04/20 10:55:11;;;;;;;;;;;;;;;16.52;30.75;98830.09;4483648;31;34195;-81
2022/04/20 10:57:39;;;;;;;;;;;;;;;17.89;27.18;98813.50;4484189;32;34365;-82
2022/04/20 11:00:21;;;;;;;;;;;;;;;17.62;29.20;98814.06;4484142;32;35061;-82
2022/04/20 11:02:53;;;;;;;;;;;;;;;17.68;28.95;98816.53;4483817;32;33547;-83
2022/04/20 11:05:21;;;;;;;;;;;;;;;17.71;26.80;98816.47;4483834;32;34146;-82
2022/04/20 11:08:01;;;;;;;;;;;;;;;17.89;25.58;98805.63;4484072;32;34340;-82
2022/04/20 11:10:29;;;;;;;;;;;;;;;17.74;24.55;98816.41;4484049;32;35374;-83
2022/04/20 11:19:13;;;;;;;;;;;;;;;18.98;24.49;98797.72;4478909;32;33740;-83
2022/04/20 11:21:53;;;;;;;;;;;;;;;17.32;27.52;98798.09;4466083;32;35119;-86
2022/04/20 11:24:25;;;;;;;;;;;;;;;16.61;29.18;98808.12;4468241;32;33992;-83
2022/04/20 11:26:52;;;;;;;;;;;;;;;16.95;28.38;98804.03;4469632;32;34148;-83
2022/04/20 11:29:23;;;;;;;;;;;;;;;18.18;26.02;98796.19;4484236;32;34024;-84
2022/04/20 11:31:51;;;;;;;;;;;;;;;17.73;28.49;98796.34;4483833;32;34171;-82
2022/04/20 11:34:20;;;;;;;;;;;;;;;18.48;25.96;98784.94;4483260;32;34110;-83
2022/04/20 11:36:48;;;;;;;;;;;;;;;19.95;24.06;98785.25;4483992;32;33774;-80
2022/04/20 11:39:17;;;;;;;;;;;;;;;19.11;24.85;98791.19;4469456;32;34888;-82
2022/04/20 11:41:45;;;;;;;;;;;;;;;17.96;25.07;98788.84;4483862;32;34416;-82
2022/04/20 11:44:19;;;;;;;;;;;;;;;18.66;23.91;98785.38;4483276;32;34291;-80
2022/04/20 11:46:50;;;;;;;;;;;;;;;17.30;25.58;98794.63;4484191;32;33143;-81
2022/04/20 11:49:18;;;;;;;;;;;;;;;17.88;24.73;98790.78;4480159;32;33594;-80
2022/04/20 11:51:50;;;;;;;;;;;;;;;17.47;25.00;98792.53;4469956;32;34202;-79
2022/04/20 11:54:22;;;;;;;;;;;;;;;18.58;24.52;98790.84;4469812;32;33984;-80
2022/04/20 11:56:50;;;;;;;;;;;;;;;18.77;23.75;98786.00;4469577;32;33527;-80
2022/04/20 11:59:35;;;;;;;;;;;;;;;18.46;24.47;98783.28;4483571;32;33724;-80
2022/04/20 12:02:03;;;;;;;;;;;;;;;17.97;24.56;98787.94;4471011;32;34337;-79
2022/04/20 12:04:31;;;;;;;;;;;;;;;17.37;25.49;98787.50;4483488;32;34351;-79
2022/04/20 12:06:59;;;;;;;;;;;;;;;17.94;25.32;98788.00;4469516;32;34054;-79
2022/04/20 12:09:28;;;;;;;;;;;;;;;18.21;26.00;98780.38;4483420;32;33878;-80
2022/04/20 12:11:57;;;;;;;;;;;;;;;19.12;23.75;98773.66;4483682;32;35215;-80
2022/04/20 12:14:27;;;;;;;;;;;;;;;19.11;24.71;98779.81;4468991;32;34078;-81
2022/04/20 12:16:58;;;;;;;;;;;;;;;18.92;24.28;98774.22;4483384;32;33240;-80
2022/04/20 12:19:30;;;;;;;;;;;;;;;19.19;22.67;98767.31;4483580;32;35269;-80
2022/04/20 12:22:07;;;;;;;;;;;;;;;18.36;23.73;98764.25;4469304;32;34744;-80
2022/04/20 12:24:35;;;;;;;;;;;;;;;17.86;23.73;98766.34;4483459;32;34344;-80
2022/04/20 12:27:02;;;;;;;;;;;;;;;18.62;23.73;98768.00;4483473;32;32569;-81
2022/04/20 12:29:33;;;;;;;;;;;;;;;18.79;22.96;98767.56;4483328;32;34414;-79
2022/04/20 12:32:01;;;;;;;;;;;;;;;19.47;23.15;98762.12;4481953;32;34056;-81
2022/04/20 12:34:28;;;;;;;;;;;;;;;18.26;24.01;98765.41;4483056;32;34989;-81
2022/04/20 12:37:03;;;;;;;;;;;;;;;18.35;23.57;98766.94;4483480;32;33224;-81
2022/04/20 12:39:30;;;;;;;;;;;;;;;18.15;24.04;98757.81;4469894;32;33615;-80
2022/04/20 12:42:04;;;;;;;;;;;;;;;19.33;22.52;98764.31;4483496;32;34243;-81
2022/04/20 12:44:48;;;;;;;;;;;;;;;19.13;23.50;98755.25;4468646;32;34345;-82
2022/04/20 12:47:16;;;;;;;;;;;;;;;19.10;22.45;98759.72;4454954;32;33294;-81
2022/04/20 12:49:44;;;;;;;;;;;;;;;17.57;24.24;98755.62;4483522;32;34704;-81
2022/04/20 12:52:15;;;;;;;;;;;;;;;17.89;24.12;98757.56;4483234;32;34119;-82
2022/04/20 12:54:59;;;;;;;;;;;;;;;16.35;26.00;98770.19;4483281;32;34379;-80
2022/04/20 13:03:10;;;;;;;;;;;;;;;17.26;25.19;98762.38;4478980;32;34049;-79
2022/04/20 13:05:38;;;;;;;;;;;;;;;17.19;25.30;98749.44;4471760;32;34999;-81
2022/04/20 13:08:06;;;;;;;;;;;;;;;17.65;24.76;98753.69;4468931;32;33136;-81
2022/04/20 13:10:34;;;;;;;;;;;;;;;17.95;25.11;98758.25;4469785;32;33344;-80
2022/04/20 13:13:01;;;;;;;;;;;;;;;19.03;22.97;98755.53;4482187;32;33656;-81
2022/04/20 13:15:37;;;;;;;;;;;;;;;16.91;25.32;98754.38;4482167;32;34073;-80
2022/04/20 13:18:04;;;;;;;;;;;;;;;17.62;24.11;98743.28;4467559;32;33824;-81
2022/04/20 13:20:31;;;;;;;;;;;;;;;18.80;23.06;98748.28;4469225;31;33771;-79
2022/04/20 13:22:59;;;;;;;;;;;;;;;19.31;22.44;98734.56;4476884;31;34364;-82
2022/04/20 13:28:12;;;;;;;;;;;;;;;19.48;21.83;98727.06;4468228;32;32918;-80
2022/04/20 13:30:39;;;;;;;;;;;;;;;18.10;22.32;98722.06;4467134;32;35075;-79
2022/04/20 13:33:08;;;;;;;;;;;;;;;17.87;23.82;98723.50;4467573;32;34147;-79
2022/04/20 13:35:36;;;;;;;;;;;;;;;19.19;22.89;98725.28;4472188;32;34803;-80
2022/04/20 13:38:06;;;;;;;;;;;;;;;18.27;23.51;98734.78;4481683;32;33546;-80
2022/04/20 13:40:34;;;;;;;;;;;;;;;17.30;24.63;98731.75;4465252;32;33951;-81
2022/04/20 13:43:01;;;;;;;;;;;;;;;17.25;24.88;98733.59;4465903;32;34481;-81
2022/04/20 13:45:29;;;;;;;;;;;;;;;17.60;24.93;98739.84;4466888;32;34806;-82
2022/04/20 13:47:56;;;;;;;;;;;;;;;18.30;23.75;98732.94;4477100;32;33423;-82